Time;durP1;ratioP1;P1;durP2;ratioP2;P2;SDS_P1;SDS_P2;PMS_P1;PMS_P2;Temp;Humidity;BMP_temperature;BMP_pressure;BME280_temperature;BME280_humidity;BME280_pressure;Samples;Min_cycle;Max_cycle;Signal;HPM_P1;HPM_P2
2021/11/03 00:00:43;;;;;;;8.68;6.88;;;;;;;7.66;100.00;99091.16;5015156;28;20673;-53
2021/11/03 00:03:10;;;;;;;10.15;6.70;;;;;;;7.65;100.00;99092.09;5029745;28;20164;-54
2021/11/03 00:05:44;;;;;;;9.60;7.13;;;;;;;7.64;100.00;99090.41;5019531;28;20065;-53
2021/11/03 00:08:17;;;;;;;9.07;7.07;;;;;;;7.61;100.00;99082.66;5035472;28;20052;-53
2021/11/03 00:10:46;;;;;;;9.07;7.00;;;;;;;7.57;100.00;99066.16;5033530;28;20048;-52
2021/11/03 00:13:14;;;;;;;10.00;7.38;;;;;;;7.56;100.00;99069.72;5042999;28;20041;-52
2021/11/03 00:15:41;;;;;;;9.63;6.78;;;;;;;7.51;100.00;99057.78;5040899;28;20502;-55
2021/11/03 00:18:07;;;;;;;9.27;6.68;;;;;;;7.49;100.00;99070.19;5044771;28;20048;-54
2021/11/03 00:20:35;;;;;;;8.43;6.75;;;;;;;7.47;100.00;99067.63;5043378;28;20064;-52
2021/11/03 00:23:03;;;;;;;8.55;7.13;;;;;;;7.40;100.00;99061.84;5046285;28;20050;-52
2021/11/03 00:25:29;;;;;;;7.13;6.43;;;;;;;7.40;100.00;99066.25;5043455;28;20049;-53
2021/11/03 00:27:56;;;;;;;10.82;7.03;;;;;;;7.40;100.00;99060.97;5044102;28;20603;-54
2021/11/03 00:30:22;;;;;;;10.70;7.47;;;;;;;7.40;100.00;99055.72;5034670;28;20126;-53
2021/11/03 00:32:49;;;;;;;10.60;7.15;;;;;;;7.40;100.00;99053.94;5046666;28;20041;-52
2021/11/03 00:35:16;;;;;;;7.95;7.10;;;;;;;7.39;100.00;99060.16;5044452;28;20041;-52
2021/11/03 00:37:42;;;;;;;8.23;6.97;;;;;;;7.42;100.00;99063.53;5042547;28;20459;-54
2021/11/03 00:40:10;;;;;;;10.07;7.78;;;;;;;7.38;100.00;99055.84;5034833;28;20524;-53
2021/11/03 00:42:37;;;;;;;9.15;7.20;;;;;;;7.42;100.00;99053.84;5044020;28;20044;-53
2021/11/03 00:45:04;;;;;;;10.38;6.90;;;;;;;7.43;100.00;99054.69;5038750;28;20528;-56
2021/11/03 00:47:31;;;;;;;12.25;8.65;;;;;;;7.43;100.00;99050.28;5042614;28;20048;-54
2021/11/03 00:49:57;;;;;;;8.55;7.60;;;;;;;7.42;100.00;99047.72;5033709;28;20052;-54
2021/11/03 00:52:24;;;;;;;10.52;7.63;;;;;;;7.38;100.00;99033.91;5048400;28;20045;-53
2021/11/03 00:54:50;;;;;;;9.60;7.18;;;;;;;7.41;100.00;99033.72;5041477;28;20044;-52
2021/11/03 00:57:17;;;;;;;10.23;7.43;;;;;;;7.40;100.00;99034.66;5047406;28;20473;-52
2021/11/03 00:59:47;;;;;;;;;;;;;;;7.38;100.00;99026.88;5033925;28;20053;-52
2021/11/03 01:02:14;;;;;;;11.50;7.28;;;;;;;7.37;100.00;99037.47;5053207;28;19927;-54
2021/11/03 01:04:41;;;;;;;13.15;7.50;;;;;;;7.36;100.00;99035.78;5029409;28;20044;-54
2021/11/03 01:07:07;;;;;;;10.65;7.25;;;;;;;7.33;100.00;99030.66;5041137;28;20072;-53
2021/11/03 01:09:34;;;;;;;10.38;7.85;;;;;;;7.31;100.00;99030.75;5029236;28;20049;-52
2021/11/03 01:12:00;;;;;;;10.85;8.57;;;;;;;7.30;100.00;99034.31;5045825;28;20114;-54
2021/11/03 01:14:27;;;;;;;11.05;7.68;;;;;;;7.23;100.00;99011.91;5045264;28;20047;-53
2021/11/03 01:16:53;;;;;;;13.13;8.18;;;;;;;7.35;100.00;99018.28;5047845;28;20065;-53
2021/11/03 01:19:20;;;;;;;10.85;8.30;;;;;;;7.37;100.00;99014.63;5038221;28;20125;-53
2021/11/03 01:21:46;;;;;;;12.98;8.18;;;;;;;7.39;100.00;99006.66;5042302;28;20068;-54
2021/11/03 01:24:13;;;;;;;12.45;9.07;;;;;;;7.41;100.00;99010.00;5045038;28;20053;-54
2021/11/03 01:26:40;;;;;;;13.35;8.48;;;;;;;7.42;100.00;99001.19;5047689;28;20056;-52
2021/11/03 01:29:07;;;;;;;13.27;8.60;;;;;;;7.43;100.00;98994.13;5042162;28;20056;-54
2021/11/03 01:31:34;;;;;;;13.60;9.30;;;;;;;7.40;100.00;98988.09;5037675;28;20045;-53
2021/11/03 01:34:03;;;;;;;11.10;8.85;;;;;;;7.38;100.00;98990.00;5049645;28;20136;-54
2021/11/03 01:36:30;;;;;;;11.27;9.13;;;;;;;7.43;100.00;98986.22;5046102;28;20041;-53
2021/11/03 01:38:56;;;;;;;14.93;9.68;;;;;;;7.43;100.00;98991.50;5045430;28;20057;-54
2021/11/03 01:41:24;;;;;;;13.82;9.40;;;;;;;7.40;100.00;98982.81;5038591;28;20060;-54
2021/11/03 01:44:01;;;;;;;12.23;9.70;;;;;;;7.47;100.00;98987.75;5043406;28;20049;-52
2021/11/03 01:46:32;;;;;;;13.52;8.93;;;;;;;7.48;100.00;98981.56;5040081;28;20063;-53
2021/11/03 01:49:03;;;;;;;11.68;8.95;;;;;;;7.45;100.00;98982.56;5041156;28;20367;-53
2021/11/03 01:51:36;;;;;;;10.73;8.63;;;;;;;7.44;100.00;98988.78;5037731;28;20045;-53
2021/11/03 01:54:06;;;;;;;14.25;8.18;;;;;;;7.44;100.00;98982.66;5034994;28;20048;-53
2021/11/03 01:56:33;;;;;;;11.43;8.68;;;;;;;7.43;100.00;98973.91;5046985;28;20048;-52
2021/11/03 01:59:08;;;;;;;11.32;8.70;;;;;;;7.42;100.00;98968.72;5040523;28;20076;-54
2021/11/03 02:01:35;;;;;;;11.98;8.70;;;;;;;7.42;100.00;98963.47;5038417;28;20048;-53
2021/11/03 02:04:02;;;;;;;11.68;7.88;;;;;;;7.44;100.00;98961.59;5043232;28;20556;-54
2021/11/03 02:06:28;;;;;;;12.05;7.75;;;;;;;7.37;100.00;98963.75;5046712;28;20053;-53
2021/11/03 02:08:56;;;;;;;10.43;8.00;;;;;;;7.34;100.00;98964.75;5046321;28;20140;-52
2021/11/03 02:11:28;;;;;;;9.95;8.20;;;;;;;7.23;100.00;98947.88;5034674;28;20053;-52
2021/11/03 02:13:56;;;;;;;9.90;8.25;;;;;;;7.30;100.00;98965.84;5044242;28;20041;-54
2021/11/03 02:16:22;;;;;;;12.23;9.00;;;;;;;7.30;100.00;98965.84;5044851;28;20082;-53
2021/11/03 02:18:50;;;;;;;10.25;8.50;;;;;;;7.28;100.00;98964.25;5045160;28;20048;-54
2021/11/03 02:21:22;;;;;;;10.60;7.82;;;;;;;7.24;100.00;98965.38;5028745;28;20439;-53
2021/11/03 02:24:01;;;;;;;10.20;7.85;;;;;;;7.25;100.00;98961.78;5045324;28;20399;-53
2021/11/03 02:26:43;;;;;;;12.00;8.35;;;;;;;7.25;100.00;98967.03;5040579;28;20135;-52
2021/11/03 02:29:15;;;;;;;13.75;7.90;;;;;;;7.23;100.00;98972.41;5038626;28;20056;-53
2021/11/03 02:31:46;;;;;;;12.65;8.65;;;;;;;7.23;100.00;98975.06;5034112;28;20700;-53
2021/11/03 02:34:26;;;;;;;11.10;8.00;;;;;;;7.23;100.00;98975.06;5047736;28;20143;-52
2021/11/03 02:37:02;;;;;;;13.07;8.60;;;;;;;7.23;100.00;98980.31;5039855;28;20041;-51
2021/11/03 02:39:37;;;;;;;10.07;7.68;;;;;;;7.21;100.00;98974.28;5033816;28;20608;-53
2021/11/03 02:42:04;;;;;;;8.93;7.47;;;;;;;7.21;100.00;98978.69;5035104;28;20040;-54
2021/11/03 02:44:35;;;;;;;11.73;7.82;;;;;;;7.21;100.00;98971.66;5041012;28;20072;-55
2021/11/03 02:47:04;;;;;;;8.73;6.90;;;;;;;7.20;100.00;98971.72;5044632;28;20056;-53
2021/11/03 02:49:31;;;;;;;10.77;7.60;;;;;;;7.21;100.00;98970.81;5032702;28;20808;-54
2021/11/03 02:51:57;;;;;;;12.40;7.78;;;;;;;7.20;100.00;98972.59;5035179;28;20041;-53
2021/11/03 02:54:24;;;;;;;8.32;7.07;;;;;;;7.20;100.00;98972.59;5038966;28;20041;-54
2021/11/03 02:56:53;;;;;;;9.45;7.18;;;;;;;7.13;100.00;98955.41;5048671;28;20063;-52
2021/11/03 02:59:25;;;;;;;8.65;6.80;;;;;;;7.24;100.00;98970.63;5038636;28;20052;-51
2021/11/03 03:01:57;;;;;;;8.50;6.85;;;;;;;7.22;100.00;98968.09;5031226;28;20083;-54
2021/11/03 03:04:29;;;;;;;9.05;7.07;;;;;;;7.21;100.00;98962.91;5038726;28;20048;-53
2021/11/03 03:06:56;;;;;;;10.45;6.85;;;;;;;7.21;100.00;98958.50;5045995;28;20519;-52
2021/11/03 03:09:23;;;;;;;12.25;6.85;;;;;;;7.22;100.00;98965.44;5035781;28;20061;-54
2021/11/03 03:11:55;;;;;;;10.10;6.68;;;;;;;7.22;100.00;98967.25;5037349;28;20041;-53
2021/11/03 03:14:25;;;;;;;9.75;6.70;;;;;;;7.26;100.00;98952.94;5041300;28;20043;-53
2021/11/03 03:16:51;;;;;;;8.90;6.82;;;;;;;7.26;100.00;98952.94;5045097;28;20052;-52
2021/11/03 03:19:18;;;;;;;9.48;7.20;;;;;;;7.26;100.00;98952.94;5031798;28;20136;-52
2021/11/03 03:21:45;;;;;;;8.70;6.05;;;;;;;7.24;100.00;98960.09;5034119;28;20077;-53
2021/11/03 03:24:12;;;;;;;8.30;6.03;;;;;;;7.26;100.00;98952.94;5042589;28;20155;-53
2021/11/03 03:26:40;;;;;;;8.27;6.05;;;;;;;7.26;100.00;98953.78;5046894;28;20049;-52
2021/11/03 03:29:08;;;;;;;8.50;6.03;;;;;;;7.24;100.00;98952.22;5037376;28;20045;-53
2021/11/03 03:31:36;;;;;;;7.50;5.47;;;;;;;7.21;100.00;98945.31;5026254;28;20053;-54
2021/11/03 03:34:07;;;;;;;7.55;5.43;;;;;;;7.21;100.00;98944.47;5040212;28;20154;-51
2021/11/03 03:36:33;;;;;;;;;;;;;;;7.24;100.00;98944.31;5036410;28;20049;-52
2021/11/03 03:39:00;;;;;;;7.45;6.00;;;;;;;7.22;100.00;98941.75;5038876;28;19929;-53
2021/11/03 03:41:28;;;;;;;6.10;5.10;;;;;;;7.25;100.00;98954.72;5036701;28;20055;-52
2021/11/03 03:43:55;;;;;;;6.40;5.50;;;;;;;7.24;100.00;98953.03;5041815;28;20092;-54
2021/11/03 03:46:22;;;;;;;7.25;5.40;;;;;;;7.27;100.00;98952.00;5047349;28;20045;-53
2021/11/03 03:48:50;;;;;;;6.97;5.68;;;;;;;7.27;100.00;98950.22;5037324;28;20072;-54
2021/11/03 03:51:19;;;;;;;7.88;5.22;;;;;;;7.27;100.00;98946.75;5030408;28;20470;-54
2021/11/03 03:53:47;;;;;;;8.02;5.03;;;;;;;7.21;100.00;98945.31;5043924;28;20053;-54
2021/11/03 03:56:15;;;;;;;6.38;5.20;;;;;;;7.24;100.00;98952.22;5038190;28;20054;-53
2021/11/03 03:58:43;;;;;;;7.50;5.15;;;;;;;7.23;100.00;98946.09;5027233;28;20139;-55
2021/11/03 04:01:12;;;;;;;6.53;5.20;;;;;;;7.30;100.00;98943.94;5032621;28;20060;-52
2021/11/03 04:03:40;;;;;;;6.93;5.20;;;;;;;7.29;100.00;98948.34;5036149;28;20049;-53
2021/11/03 04:06:06;;;;;;;6.88;5.05;;;;;;;7.29;100.00;98952.78;5045484;28;20065;-52
2021/11/03 04:08:33;;;;;;;6.80;4.93;;;;;;;7.31;100.00;98951.75;5043883;28;20055;-53
2021/11/03 04:10:59;;;;;;;6.65;5.05;;;;;;;7.28;100.00;98946.66;5029369;28;20049;-54
2021/11/03 04:13:26;;;;;;;6.47;5.05;;;;;;;7.21;100.00;98949.75;5042902;28;20047;-53
2021/11/03 04:15:53;;;;;;;8.32;5.38;;;;;;;7.24;100.00;98954.84;5041357;28;20053;-54
2021/11/03 04:18:20;;;;;;;8.65;5.28;;;;;;;7.21;100.00;98950.59;5039889;28;20048;-53
2021/11/03 04:20:47;;;;;;;8.60;6.00;;;;;;;7.20;100.00;98948.03;5029834;28;20045;-53
2021/11/03 04:23:14;;;;;;;9.82;5.53;;;;;;;7.16;100.00;98947.34;5039606;28;20045;-53
2021/11/03 04:25:40;;;;;;;7.50;5.97;;;;;;;7.07;100.00;98931.25;5036499;28;20401;-53
2021/11/03 04:28:07;;;;;;;8.10;5.90;;;;;;;7.17;100.00;98943.78;5029452;28;20040;-53
2021/11/03 04:30:34;;;;;;;8.00;5.68;;;;;;;7.04;100.00;98925.22;5035723;28;20049;-54
2021/11/03 04:33:02;;;;;;;7.25;5.32;;;;;;;7.15;100.00;98945.66;5035767;28;20045;-54
2021/11/03 04:35:29;;;;;;;9.20;6.18;;;;;;;7.14;100.00;98943.09;5036704;28;20056;-54
2021/11/03 04:37:55;;;;;;;7.03;5.93;;;;;;;7.14;100.00;98943.97;5039357;28;20048;-53
2021/11/03 04:40:24;;;;;;;7.65;6.25;;;;;;;7.13;100.00;98942.25;5029683;28;20064;-53
2021/11/03 04:42:51;;;;;;;7.32;5.43;;;;;;;7.11;100.00;98935.38;5037710;28;20045;-52
2021/11/03 04:45:19;;;;;;;7.47;5.85;;;;;;;7.10;100.00;98937.16;5042843;28;20049;-54
2021/11/03 04:47:46;;;;;;;7.90;5.85;;;;;;;7.09;100.00;98937.25;5037766;28;20513;-53
2021/11/03 04:50:18;;;;;;;7.25;6.20;;;;;;;7.04;100.00;98938.38;5036835;28;20498;-52
2021/11/03 04:52:45;;;;;;;9.25;6.43;;;;;;;7.03;100.00;98925.28;5037477;28;20044;-53
2021/11/03 04:55:12;;;;;;;7.75;6.05;;;;;;;7.06;100.00;98932.16;5041338;28;20036;-51
2021/11/03 04:57:39;;;;;;;9.25;6.45;;;;;;;7.05;100.00;98931.31;5038785;28;20847;-53
2021/11/03 05:00:09;;;;;;;9.00;5.72;;;;;;;7.11;100.00;98927.47;5035626;28;20102;-54
2021/11/03 05:02:35;;;;;;;10.52;6.30;;;;;;;7.01;100.00;98919.25;5035207;28;20041;-52
2021/11/03 05:05:02;;;;;;;8.93;7.00;;;;;;;6.98;100.00;98919.44;5042616;28;20160;-53
2021/11/03 05:07:29;;;;;;;11.07;7.30;;;;;;;6.94;100.00;98916.09;5041962;28;20049;-51
2021/11/03 05:09:55;;;;;;;10.35;7.38;;;;;;;6.97;100.00;98915.09;5041428;28;20049;-52
2021/11/03 05:12:22;;;;;;;10.18;7.10;;;;;;;6.95;100.00;98917.81;5035759;28;20045;-52
2021/11/03 05:14:48;;;;;;;9.75;7.05;;;;;;;6.95;100.00;98906.44;5040952;28;20033;-52
2021/11/03 05:17:15;;;;;;;12.02;7.78;;;;;;;6.94;100.00;98902.09;5043849;28;20045;-56
2021/11/03 05:19:41;;;;;;;10.18;8.20;;;;;;;6.96;100.00;98903.72;5044035;28;20040;-53
2021/11/03 05:22:09;;;;;;;11.10;8.10;;;;;;;6.98;100.00;98895.75;5036361;28;20080;-52
2021/11/03 05:24:36;;;;;;;12.02;8.48;;;;;;;7.01;100.00;98903.47;5046987;28;20409;-53
2021/11/03 05:27:03;;;;;;;13.48;9.40;;;;;;;7.01;100.00;98895.56;5040018;28;20044;-54
2021/11/03 05:29:30;;;;;;;12.68;8.70;;;;;;;7.00;100.00;98900.00;5043177;28;20671;-52
2021/11/03 05:31:56;;;;;;;12.02;8.93;;;;;;;7.01;100.00;98898.22;5031919;28;20045;-53
2021/11/03 05:34:23;;;;;;;12.30;8.80;;;;;;;7.01;100.00;98893.78;5043317;28;20103;-53
2021/11/03 05:36:51;;;;;;;13.43;8.90;;;;;;;7.01;100.00;98896.44;5049553;28;20402;-54
2021/11/03 05:39:18;;;;;;;13.77;9.30;;;;;;;6.91;100.00;98884.72;5039478;28;20119;-53
2021/11/03 05:41:45;;;;;;;13.15;9.57;;;;;;;6.90;100.00;98887.44;5035828;28;20056;-52
2021/11/03 05:44:17;;;;;;;14.00;9.80;;;;;;;7.01;100.00;98899.06;5042759;28;20045;-52
2021/11/03 05:46:53;;;;;;;13.43;10.13;;;;;;;7.03;100.00;98897.19;5043858;28;20080;-54
2021/11/03 05:49:24;;;;;;;13.57;9.38;;;;;;;7.02;100.00;98902.53;5038282;28;20433;-51
2021/11/03 05:51:51;;;;;;;14.23;9.93;;;;;;;7.03;100.00;98896.34;5030390;28;20638;-51
2021/11/03 05:54:18;;;;;;;14.15;10.40;;;;;;;7.06;100.00;98887.44;5044775;28;20041;-53
2021/11/03 05:56:46;;;;;;;16.65;9.20;;;;;;;7.19;100.00;98884.00;5043718;28;20071;-54
2021/11/03 05:59:14;;;;;;;13.68;9.95;;;;;;;7.13;100.00;98888.75;5043044;28;20076;-53
2021/11/03 06:01:41;;;;;;;12.52;9.50;;;;;;;7.11;100.00;98883.59;5034572;28;20132;-53
2021/11/03 06:04:08;;;;;;;16.98;10.18;;;;;;;7.10;100.00;98886.28;5041565;28;20049;-54
2021/11/03 06:06:36;;;;;;;15.20;10.32;;;;;;;7.06;100.00;98888.28;5046666;28;20453;-55
2021/11/03 06:09:05;;;;;;;15.30;10.73;;;;;;;7.04;100.00;98876.97;5042801;28;20051;-52
2021/11/03 06:11:32;;;;;;;15.45;9.68;;;;;;;7.02;100.00;98878.84;5035628;28;20057;-53
2021/11/03 06:13:59;;;;;;;17.40;10.65;;;;;;;7.00;100.00;98880.72;5041119;28;20052;-51
2021/11/03 06:16:26;;;;;;;16.25;10.63;;;;;;;7.02;100.00;98870.97;5042921;28;20060;-53
2021/11/03 06:18:52;;;;;;;14.82;10.60;;;;;;;7.03;100.00;98872.66;5040175;28;20052;-54
2021/11/03 06:21:19;;;;;;;17.42;10.48;;;;;;;7.02;100.00;98870.97;5036317;28;20497;-53
2021/11/03 06:23:46;;;;;;;17.10;10.68;;;;;;;6.98;100.00;98865.00;5040505;28;20052;-51
2021/11/03 06:26:15;;;;;;;15.32;10.77;;;;;;;6.99;100.00;98861.44;5042962;28;20048;-55
2021/11/03 06:28:42;;;;;;;14.48;10.35;;;;;;;7.02;100.00;98855.16;5041415;28;20049;-53
2021/11/03 06:31:09;;;;;;;17.33;10.60;;;;;;;7.01;100.00;98854.31;5038680;28;20051;-54
2021/11/03 06:33:36;;;;;;;14.98;10.73;;;;;;;7.01;100.00;98856.94;5040478;28;20183;-51
2021/11/03 06:36:06;;;;;;;16.10;10.30;;;;;;;7.01;100.00;98856.09;5043958;28;20044;-55
2021/11/03 06:38:32;;;;;;;14.88;10.18;;;;;;;7.04;100.00;98855.94;5039733;28;20051;-53
2021/11/03 06:41:00;;;;;;;15.07;10.40;;;;;;;7.07;100.00;98852.28;5038087;28;20426;-51
2021/11/03 06:43:27;;;;;;;15.90;10.80;;;;;;;7.13;100.00;98849.28;5037926;28;20064;-53
2021/11/03 06:45:55;;;;;;;13.80;9.77;;;;;;;7.12;100.00;98842.31;5032961;28;20069;-52
2021/11/03 06:48:22;;;;;;;14.68;10.13;;;;;;;7.13;100.00;98842.22;5034716;28;20048;-51
2021/11/03 06:50:51;;;;;;;18.70;11.68;;;;;;;6.97;100.00;98821.19;5030625;28;20917;-52
2021/11/03 06:53:21;;;;;;;19.25;10.80;;;;;;;7.03;100.00;98826.13;5027812;28;20045;-53
2021/11/03 06:55:50;;;;;;;18.10;11.45;;;;;;;7.17;100.00;98835.84;5030587;28;20524;-53
2021/11/03 06:58:17;;;;;;;18.77;11.48;;;;;;;7.18;100.00;98844.59;5032867;28;20055;-54
2021/11/03 07:00:45;;;;;;;18.83;12.02;;;;;;;7.15;100.00;98834.25;5032937;28;20524;-52
2021/11/03 07:03:13;;;;;;;18.55;11.48;;;;;;;7.16;100.00;98828.91;5032400;28;20339;-56
2021/11/03 07:05:43;;;;;;;16.83;11.10;;;;;;;7.20;100.00;98817.25;5030222;28;20083;-53
2021/11/03 07:08:10;;;;;;;16.75;9.88;;;;;;;7.31;100.00;98809.56;5030325;28;20087;-52
2021/11/03 07:10:41;;;;;;;15.30;9.70;;;;;;;7.22;100.00;98811.91;5036684;28;20048;-52
2021/11/03 07:13:08;;;;;;;15.93;10.20;;;;;;;7.14;100.00;98812.34;5029252;28;20392;-52
2021/11/03 07:15:35;;;;;;;16.17;10.38;;;;;;;7.15;100.00;98815.81;5037951;28;20471;-51
2021/11/03 07:18:03;;;;;;;17.30;10.95;;;;;;;7.21;100.00;98824.22;5037436;28;20056;-53
2021/11/03 07:20:29;;;;;;;14.38;10.07;;;;;;;7.22;100.00;98825.06;5033834;28;20525;-53
2021/11/03 07:22:56;;;;;;;16.25;9.98;;;;;;;7.23;100.00;98824.13;5026846;28;20051;-52
2021/11/03 07:25:25;;;;;;;16.33;10.32;;;;;;;7.26;100.00;98824.78;5038662;28;20045;-52
2021/11/03 07:27:54;;;;;;;14.13;9.48;;;;;;;7.32;100.00;98829.69;5039423;28;20051;-52
2021/11/03 07:30:26;;;;;;;11.75;8.50;;;;;;;7.33;100.00;98825.28;5037373;28;20044;-52
2021/11/03 07:32:53;;;;;;;10.85;8.23;;;;;;;7.40;100.00;98835.34;5025712;28;20059;-52
2021/11/03 07:35:20;;;;;;;9.82;7.07;;;;;;;7.44;100.00;98825.50;5031295;28;20045;-52
2021/11/03 07:37:49;;;;;;;12.40;8.48;;;;;;;7.36;100.00;98820.69;5038224;28;20514;-52
2021/11/03 07:40:19;;;;;;;10.35;7.90;;;;;;;7.38;100.00;98817.97;5034978;28;20650;-50
2021/11/03 07:42:47;;;;;;;10.27;7.45;;;;;;;7.36;100.00;98820.69;5030585;28;20045;-54
2021/11/03 07:45:14;;;;;;;16.17;8.70;;;;;;;7.33;100.00;98827.91;5032270;28;20057;-51
2021/11/03 07:47:41;;;;;;;13.02;6.93;;;;;;;7.42;100.00;98829.16;5035165;28;20045;-51
2021/11/03 07:50:14;;;;;;;10.68;7.28;;;;;;;7.48;100.00;98828.78;5037826;28;20123;-52
2021/11/03 07:52:40;;;;;;;10.52;7.20;;;;;;;7.46;100.00;98823.63;5037266;28;20047;-52
2021/11/03 07:55:09;;;;;;;11.27;7.28;;;;;;;7.32;100.00;98795.47;5043212;28;20045;-58
2021/11/03 07:57:36;;;;;;;11.38;8.20;;;;;;;7.46;100.00;98817.50;5042137;28;20499;-52
2021/11/03 08:00:07;;;;;;;12.40;8.75;;;;;;;7.47;100.00;98827.09;5035504;28;20037;-53
2021/11/03 08:02:34;;;;;;;11.82;8.40;;;;;;;7.45;100.00;98821.91;5024891;28;20048;-52
2021/11/03 08:05:00;;;;;;;10.63;7.70;;;;;;;7.47;100.00;98829.72;5041165;28;20676;-51
2021/11/03 08:07:27;;;;;;;11.23;8.13;;;;;;;7.50;100.00;98824.28;5035005;28;20045;-52
2021/11/03 08:09:54;;;;;;;10.35;7.03;;;;;;;7.48;100.00;98834.06;5035620;28;20059;-53
2021/11/03 08:12:20;;;;;;;9.77;7.18;;;;;;;7.47;100.00;98827.94;5025679;28;20501;-52
2021/11/03 08:14:47;;;;;;;9.65;6.72;;;;;;;7.49;100.00;98817.31;5042389;28;20067;-52
2021/11/03 08:17:16;;;;;;;11.10;7.00;;;;;;;7.49;100.00;98818.19;5035505;28;20045;-53
2021/11/03 08:19:48;;;;;;;9.93;6.65;;;;;;;7.52;100.00;98820.63;5044882;28;20445;-55
2021/11/03 08:22:23;;;;;;;7.60;6.00;;;;;;;7.51;100.00;98831.25;5033759;28;20085;-52
2021/11/03 08:24:54;;;;;;;11.73;7.00;;;;;;;7.53;100.00;98830.22;5028979;28;20045;-53
2021/11/03 08:27:23;;;;;;;9.70;6.40;;;;;;;7.51;100.00;98826.00;5036792;28;20494;-52
2021/11/03 08:29:51;;;;;;;10.35;6.43;;;;;;;7.53;100.00;98829.38;5042116;28;20051;-52
2021/11/03 08:32:24;;;;;;;8.73;6.07;;;;;;;7.52;100.00;98820.63;5033148;28;20053;-52
2021/11/03 08:34:52;;;;;;;8.70;6.75;;;;;;;7.50;100.00;98821.66;5041162;28;20044;-53
2021/11/03 08:37:22;;;;;;;11.93;6.75;;;;;;;7.50;100.00;98825.13;5048755;28;20044;-52
2021/11/03 08:39:51;;;;;;;10.73;6.22;;;;;;;7.55;100.00;98827.50;5043759;28;20048;-53
2021/11/03 08:42:19;;;;;;;10.23;5.93;;;;;;;7.53;100.00;98829.38;5032925;28;20525;-53
2021/11/03 08:44:47;;;;;;;9.40;6.78;;;;;;;7.55;100.00;98827.50;5040845;28;20049;-52
2021/11/03 08:47:14;;;;;;;8.73;6.82;;;;;;;7.54;100.00;98831.09;5047249;28;20047;-54
2021/11/03 08:49:41;;;;;;;12.00;6.93;;;;;;;7.55;100.00;98832.78;5046256;28;20049;-54
2021/11/03 08:52:08;;;;;;;10.85;6.60;;;;;;;7.59;100.00;98821.94;5037014;28;20045;-52
2021/11/03 08:54:37;;;;;;;10.02;6.82;;;;;;;7.56;100.00;98827.38;5039725;28;20072;-52
2021/11/03 08:57:20;;;;;;;10.68;7.22;;;;;;;7.52;100.00;98820.63;5033074;28;20049;-53
2021/11/03 08:59:53;;;;;;;12.63;6.82;;;;;;;7.58;100.00;98816.75;5029822;28;20045;-52
2021/11/03 09:02:20;;;;;;;10.10;7.07;;;;;;;7.61;100.00;98819.22;5027621;28;20326;-52
2021/11/03 09:04:48;;;;;;;13.27;7.45;;;;;;;7.51;100.00;98804.91;5032931;28;20566;-51
2021/11/03 09:07:14;;;;;;;9.95;7.38;;;;;;;7.57;100.00;98799.25;5038725;28;20077;-53
2021/11/03 09:09:43;;;;;;;8.38;6.00;;;;;;;7.72;100.00;98816.78;5034837;28;20049;-52
2021/11/03 09:12:09;;;;;;;7.10;5.05;;;;;;;7.78;100.00;98813.78;5031082;28;20056;-53
2021/11/03 09:14:36;;;;;;;7.13;5.07;;;;;;;7.78;100.00;98813.78;5033258;28;20049;-53
2021/11/03 09:17:03;;;;;;;7.50;5.00;;;;;;;7.75;100.00;98814.81;5034041;28;20367;-52
2021/11/03 09:19:30;;;;;;;7.47;4.47;;;;;;;7.74;100.00;98810.47;5035396;28;20048;-52
2021/11/03 09:21:57;;;;;;;8.07;5.45;;;;;;;7.64;100.00;98797.97;5029111;28;20167;-53
2021/11/03 09:24:23;;;;;;;8.82;5.63;;;;;;;7.70;100.00;98811.63;5028673;28;20501;-53
2021/11/03 09:26:50;;;;;;;6.45;5.20;;;;;;;7.79;100.00;98810.22;5036272;28;20048;-53
2021/11/03 09:29:16;;;;;;;7.32;4.85;;;;;;;7.78;100.00;98811.16;5037330;28;20048;-52
2021/11/03 09:31:44;;;;;;;7.25;4.60;;;;;;;7.74;100.00;98815.75;5032369;28;20049;-51
2021/11/03 09:34:12;;;;;;;7.28;5.47;;;;;;;7.72;100.00;98812.34;5027941;28;20053;-51
2021/11/03 09:36:43;;;;;;;8.30;5.70;;;;;;;7.74;100.00;98812.28;5038755;28;20413;-53
2021/11/03 09:39:10;;;;;;;8.27;6.05;;;;;;;7.68;100.00;98797.69;5031839;28;20083;-52
2021/11/03 09:41:44;;;;;;;7.95;5.50;;;;;;;7.84;100.00;98815.22;5037150;28;20172;-52
2021/11/03 09:44:23;;;;;;;9.23;5.07;;;;;;;7.90;100.00;98807.75;5036274;28;20037;-51
2021/11/03 09:46:58;;;;;;;10.90;6.10;;;;;;;7.85;100.00;98814.28;5035472;28;20455;-51
2021/11/03 09:49:32;;;;;;;6.80;5.93;;;;;;;7.86;100.00;98816.81;5036678;28;20095;-51
2021/11/03 09:52:16;;;;;;;9.20;6.65;;;;;;;7.75;100.00;98804.28;5038858;28;20045;-50
2021/11/03 09:54:48;;;;;;;11.05;6.95;;;;;;;7.84;100.00;98816.06;5039427;28;20037;-51
2021/11/03 09:57:37;;;;;;;9.77;6.07;;;;;;;7.88;100.00;98819.34;5046217;28;20367;-54
2021/11/03 10:00:41;;;;;;;11.27;5.17;;;;;;;7.92;100.00;98826.97;5047841;28;20382;-52
2021/11/03 10:03:26;;;;;;;9.60;5.68;;;;;;;7.93;100.00;98826.03;5029055;28;20476;-52
2021/11/03 10:05:59;;;;;;;10.55;5.70;;;;;;;7.98;100.00;98825.75;5037996;28;20453;-51
2021/11/03 10:08:29;;;;;;;10.93;5.38;;;;;;;7.99;100.00;98822.19;5043114;28;20628;-52
2021/11/03 10:11:02;;;;;;;5.15;4.63;;;;;;;7.99;100.00;98833.56;5036589;28;20040;-52
2021/11/03 10:13:39;;;;;;;7.05;4.82;;;;;;;8.00;100.00;98829.16;5029307;28;20502;-52
2021/11/03 10:16:15;;;;;;;11.07;5.50;;;;;;;7.98;100.00;98833.66;5038071;28;20052;-50
2021/11/03 10:18:57;;;;;;;8.82;5.88;;;;;;;8.01;100.00;98836.97;5042137;28;20052;-52
2021/11/03 10:21:32;;;;;;;9.02;5.60;;;;;;;8.03;100.00;98835.06;5044771;28;20041;-51
2021/11/03 10:23:58;;;;;;;6.10;4.60;;;;;;;8.01;100.00;98829.06;5030159;28;20052;-52
2021/11/03 10:26:31;;;;;;;7.60;4.50;;;;;;;8.07;100.00;98836.56;5044304;28;20037;-52
2021/11/03 10:29:37;;;;;;;7.88;4.50;;;;;;;8.08;100.00;98830.34;5038941;28;20072;-52
2021/11/03 10:32:07;;;;;;;8.65;5.28;;;;;;;8.09;100.00;98829.41;5030803;28;20045;-52
2021/11/03 10:34:33;;;;;;;7.03;5.07;;;;;;;8.13;100.00;98829.25;5027952;28;20151;-51
2021/11/03 10:37:00;;;;;;;7.72;5.45;;;;;;;8.14;100.00;98826.50;5033830;28;20465;-52
2021/11/03 10:39:27;;;;;;;6.70;5.10;;;;;;;8.14;100.00;98828.28;5031895;28;20068;-51
2021/11/03 10:42:02;;;;;;;7.90;5.07;;;;;;;8.10;100.00;98831.13;5032030;28;20493;-51
2021/11/03 10:44:33;;;;;;;7.22;5.10;;;;;;;8.07;100.00;98828.66;5029561;28;20051;-52
2021/11/03 10:47:21;;;;;;;;;;;;;;;8.11;100.00;98831.97;5040366;28;20048;-52
2021/11/03 10:50:15;;;;;;;6.50;5.47;;;;;;;8.11;100.00;98821.41;5034079;28;20007;-52
2021/11/03 10:52:55;;;;;;;7.72;5.28;;;;;;;8.16;100.00;98819.34;5024177;28;20041;-54
2021/11/03 10:55:26;;;;;;;;;;;;;;;8.23;100.00;98825.06;5040881;28;20251;-52
2021/11/03 10:58:19;;;;;;;6.80;5.00;;;;;;;8.28;100.00;98825.66;5031689;28;19929;-51
2021/11/03 11:01:11;;;;;;;7.50;5.07;;;;;;;8.26;100.00;98825.75;5037149;28;20041;-51
2021/11/03 11:04:08;;;;;;;7.85;4.72;;;;;;;8.32;100.00;98835.94;5033739;28;20069;-52
2021/11/03 11:06:39;;;;;;;6.75;4.53;;;;;;;8.36;100.00;98836.59;5035933;28;20129;-51
2021/11/03 11:09:24;;;;;;;9.52;6.50;;;;;;;8.42;100.00;98844.97;5036177;28;20045;-52
2021/11/03 11:11:55;;;;;;;9.77;5.93;;;;;;;8.43;100.00;98841.38;5038498;28;20045;-52
2021/11/03 11:14:24;;;;;;;7.43;5.15;;;;;;;8.40;100.00;98833.66;5034715;28;20503;-52
2021/11/03 11:17:13;;;;;;;7.32;5.22;;;;;;;8.46;100.00;98826.31;5040131;28;20132;-52
2021/11/03 11:19:57;;;;;;;9.07;5.30;;;;;;;8.58;100.00;98831.66;5036719;28;20045;-53
2021/11/03 11:22:33;;;;;;;8.45;5.00;;;;;;;8.65;100.00;98827.69;5036752;28;20043;-53
2021/11/03 11:25:11;;;;;;;6.15;4.78;;;;;;;8.68;100.00;98824.84;5037365;28;20056;-52
2021/11/03 11:27:43;;;;;;;5.75;4.85;;;;;;;8.68;100.00;98824.00;5042742;28;20041;-52
2021/11/03 11:30:17;;;;;;;6.82;5.20;;;;;;;8.64;100.00;98819.88;5039804;28;20673;-51
2021/11/03 11:32:49;;;;;;;7.55;4.70;;;;;;;8.59;100.00;98825.44;5037193;28;20049;-52
2021/11/03 11:35:40;;;;;;;6.43;4.80;;;;;;;8.63;100.00;98823.47;5025886;28;20041;-52
2021/11/03 11:38:24;;;;;;;5.88;4.43;;;;;;;8.71;100.00;98815.88;5033457;28;20120;-53
2021/11/03 11:40:59;;;;;;;8.00;5.53;;;;;;;8.75;100.00;98812.97;5034158;28;20590;-53